x

Ilm3 - 27 Miles Se Of Wrightsville Beach, Nc (41037) Weather Station

9:00 - Sat 19th Apr 2014 All times are EDT. -4 hours from GMT.

  • Wind
    31mph, 40mph gusts
  • Aire Temp 58°f
  • Sea Pressure 1013.6mb
  • Ilm3 - 27 Miles Se Of Wrightsville Beach, Nc
  • Ilm3 - 27 Miles Se Of Wrightsville Beach, Nc

More Historic Weather Station data

Upgrade to MSW Pro to gain access to the past 30 days of data for over 8000 Wavebouys and Weather Stations around the globe.

Join Pro

Comparision Forecast

View Surf forecast
   
sáb 04/19 9:00 31 40 mph 1013.6mb 58f
8:00 31 36 mph 1015.4mb 57f
7:00 31 36 mph 1015.8mb 56f
6:00 31 36 mph 1014.7mb 56f
5:00 34 40 mph 1015.2mb 57f
4:00 34 40 mph 1015mb 57f
3:00 29 38 mph 1015.6mb 57f
2:00 34 40 mph 1016.5mb 56f
1:00 31 38 mph 1018.9mb 56f
12:00 34 38 mph 1018.9mb 54f
vie 04/18 11:00 29 36 mph 1020.4mb 54f
10:00 27 34 mph 1021.4mb 55f
9:00 31 38 mph 1021.7mb 54f
8:00 29 34 mph 1021.2mb 55f
7:00 25 29 mph 1021.7mb 56f
6:00 25 27 mph 1022.1mb 58f
5:00 25 31 mph 1022.6mb 58f
4:00 22 27 mph 1022.9mb 57f
3:00 22 27 mph 1024.3mb 57f
1:00 25 27 mph 1026.2mb 54f
12:00 20 25 mph 1026.8mb 54f
11:00 22 27 mph 1027.3mb 52f
10:00 20 25 mph 1027mb 52f
9:00 22 27 mph 1027.1mb 50f
8:00 22 27 mph 1026.8mb 51f
7:00 25 27 mph 1026.6mb 50f
6:00 25 29 mph 1026.3mb 51f
5:00 25 29 mph 1026.6mb 51f
4:00 25 29 mph 1026.8mb 51f
3:00 27 31 mph 1027mb 51f
2:00 25 29 mph 1027.4mb 52f
1:00 29 34 mph 1028.4mb 52f
12:00 25 29 mph 1028.6mb 54f
jue 04/17 11:00 27 31 mph 1028.9mb 55f
10:00 25 31 mph 1028.7mb 55f
9:00 27 31 mph 1028.7mb 56f
8:00 27 31 mph 1028.4mb 57f
7:00 27 31 mph 1027.7mb 57f
6:00 25 29 mph 1028.7mb 58f
5:00 27 31 mph 1028.6mb 58f
4:00 25 29 mph 1029.5mb 57f
3:00 25 29 mph 1030.4mb 57f
2:00 27 29 mph 1030.1mb 56f
1:00 20 25 mph 1030.8mb 56f
12:00 25 29 mph 1030.9mb 54f
11:00 25 27 mph 1030.6mb 53f
10:00 25 27 mph 1030.5mb 51f
9:00 25 29 mph 1030mb 51f
8:00 25 31 mph 1029.1mb 49f
7:00 27 31 mph 1028.6mb 48f
6:00 29 34 mph 1028.1mb 47f
5:00 27 34 mph 1027.8mb 49f
4:00 27 29 mph 1027.9mb 48f
3:00 25 29 mph 1028.7mb 49f
2:00 25 29 mph 1029.1mb 48f
1:00 22 27 mph 1029.3mb 48f
12:00 29 34 mph 1029.1mb 48f
mié 04/16 11:00 29 34 mph 1029.1mb 48f
10:00 27 34 mph 1029.1mb 49f
9:00 27 31 mph 1029mb 49f
8:00 22 27 mph 1028.2mb 49f
7:00 25 29 mph 1027.2mb 49f
6:00 27 31 mph 1027.5mb 50f
5:00 22 27 mph 1026.7mb 50f
4:00 25 31 mph 1026.6mb 48f
3:00 25 29 mph 1026.5mb 47f
2:00 22 27 mph 1027.4mb 45f
1:00 22 29 mph 1027.2mb 45f
12:00 27 31 mph 1027.2mb 44f
11:00 27 31 mph 1026.4mb 41f
10:00 29 31 mph 1025.7mb 42f
9:00 29 34 mph 1024mb 42f
8:00 31 36 mph 1022.8mb 42f
7:00 31 38 mph 1022.3mb 44f
6:00 29 34 mph 1019.9mb 44f
5:00 36 40 mph 1017.6mb 45f
4:00 34 38 mph 1016.6mb 47f
3:00 36 43 mph 1014.5mb 48f
2:00 25 29 mph 1013.9mb 50f
1:00 31 45 mph 1011.1mb 51f
12:00 34 40 mph 1011.2mb 53f
mar 04/15 11:00 38 45 mph 1007.6mb 55f
10:00 18 22 mph 1005mb 65f
9:00 20 22 mph 1005.5mb 66f
8:00 22 27 mph 1005.3mb 66f
7:00 20 25 mph 1005.4mb 65f
6:00 20 25 mph 1006mb 64f
5:00 25 31 mph 1006mb 64f
4:00 22 25 mph 1007.3mb 64f
3:00 18 25 mph 1008.2mb 65f